Time;durP1;ratioP1;P1;durP2;ratioP2;P2;SDS_P1;SDS_P2;PMS_P1;PMS_P2;Temp;Humidity;BMP_temperature;BMP_pressure;BME280_temperature;BME280_humidity;BME280_pressure;Samples;Min_cycle;Max_cycle;Signal;HPM_P1;HPM_P2
2023/05/14 05:50:07;;;;;;;;;;;;;;;15.13;69.12;96692.75;4245723;27;10319;-73
2023/05/14 05:52:10;;;;;;;;;;;;;;;15.44;68.65;96693.56;4239327;27;5767;-73
2023/05/14 05:54:13;;;;;;;;;;;;;;;15.67;68.17;96693.69;4247490;27;5807;-74
2023/05/14 05:56:16;;;;;;;;;;;;;;;15.85;67.85;96689.31;4247999;27;5087;-74
2023/05/14 05:58:18;;;;;;;;;;;;;;;15.97;67.54;96690.16;4229012;28;5701;-73
2023/05/14 06:00:22;;;;;;;;;;;;;;;16.09;67.22;96682.19;4247465;27;5734;-73
2023/05/14 06:02:25;;;;;;;;;;;;;;;16.22;67.08;96685.44;4247566;27;5790;-73
2023/05/14 06:04:28;;;;;;;;;;;;;;;16.32;66.82;96694.72;4247307;27;5590;-73
2023/05/14 06:06:33;;;;;;;;;;;;;;;16.39;66.57;96680.22;4247465;27;5602;-74
2023/05/14 06:08:35;;;;;;;;;;;;;;;16.47;66.36;96684.38;4247144;27;5680;-73
2023/05/14 06:10:38;;;;;;;;;;;;;;;16.51;66.23;96689.00;4247156;27;5801;-73
2023/05/14 06:12:41;;;;;;;;;;;;;;;16.55;66.23;96692.84;4247486;27;5675;-73
2023/05/14 06:14:44;;;;;;;;;;;;;;;16.57;66.03;96695.28;4247278;27;5823;-74
2023/05/14 06:16:47;;;;;;;;;;;;;;;16.59;65.92;96688.66;4240360;27;5784;-73
2023/05/14 06:18:51;;;;;;;;;;;;;;;16.62;65.76;96684.72;4238576;27;5853;-73
2023/05/14 06:20:55;;;;;;;;;;;;;;;16.66;65.61;96685.91;4246165;27;5704;-73
2023/05/14 06:22:59;;;;;;;;;;;;;;;16.62;65.33;96686.56;4238365;27;5645;-73
2023/05/14 06:25:03;;;;;;;;;;;;;;;16.65;65.35;96684.28;4238679;27;5838;-73
2023/05/14 06:27:06;;;;;;;;;;;;;;;16.65;65.32;96681.59;4238485;27;7730;-72
2023/05/14 06:29:09;;;;;;;;;;;;;;;16.62;65.05;96681.25;4228405;28;5723;-73
2023/05/14 06:31:12;;;;;;;;;;;;;;;16.63;65.08;96691.69;4246896;27;5688;-73
2023/05/14 06:33:15;;;;;;;;;;;;;;;16.64;64.89;96687.97;4244830;27;6360;-73
2023/05/14 06:35:20;;;;;;;;;;;;;;;16.66;64.88;96685.91;4241953;27;5804;-74
2023/05/14 06:37:23;;;;;;;;;;;;;;;16.65;64.58;96694.09;4247085;27;6493;-74
2023/05/14 06:39:28;;;;;;;;;;;;;;;16.53;64.46;96686.91;4242308;27;5902;-74
2023/05/14 06:41:31;;;;;;;;;;;;;;;16.50;64.62;96689.25;4242971;27;6382;-74
2023/05/14 06:43:34;;;;;;;;;;;;;;;16.53;64.50;96691.44;4246661;27;5594;-73
2023/05/14 06:45:37;;;;;;;;;;;;;;;16.56;64.57;96691.00;4244621;27;5602;-73
2023/05/14 06:47:40;;;;;;;;;;;;;;;16.60;64.17;96682.28;4229287;27;5613;-73
2023/05/14 06:49:45;;;;;;;;;;;;;;;16.68;64.04;96694.50;4231289;27;5602;-73
2023/05/14 06:51:48;;;;;;;;;;;;;;;16.75;63.84;96700.50;4235553;28;5598;-73
2023/05/14 06:53:52;;;;;;;;;;;;;;;16.80;63.75;96694.47;4234938;28;5800;-73
2023/05/14 06:55:56;;;;;;;;;;;;;;;16.83;63.69;96702.81;4226629;28;5610;-73
2023/05/14 06:57:59;;;;;;;;;;;;;;;16.87;63.56;96698.66;4235175;28;5605;-73
2023/05/14 07:00:02;;;;;;;;;;;;;;;16.92;63.48;96702.47;4218071;28;5771;-73
2023/05/14 07:02:05;;;;;;;;;;;;;;;16.93;63.40;96704.09;4219081;28;5669;-73
2023/05/14 07:04:08;;;;;;;;;;;;;;;16.96;63.33;96701.75;4231284;28;5695;-73
2023/05/14 07:06:14;;;;;;;;;;;;;;;16.97;63.36;96697.22;4230941;28;5910;-73
2023/05/14 07:08:18;;;;;;;;;;;;;;;17.01;63.13;96706.41;4234639;28;6319;-74
2023/05/14 07:10:21;;;;;;;;;;;;;;;16.93;62.94;96685.41;4231606;28;5614;-74
2023/05/14 07:12:27;;;;;;;;;;;;;;;17.06;62.87;96706.50;4227821;28;5804;-74
2023/05/14 07:14:34;;;;;;;;;;;;;;;17.05;62.80;96694.19;4233627;28;7300;-74
2023/05/14 07:16:37;;;;;;;;;;;;;;;17.00;62.55;96686.09;4234631;28;7235;-74
2023/05/14 07:18:44;;;;;;;;;;;;;;;17.08;62.43;96688.38;4234464;28;5692;-73
2023/05/14 07:20:48;;;;;;;;;;;;;;;17.12;62.56;96692.22;4227890;28;5736;-73
2023/05/14 07:22:52;;;;;;;;;;;;;;;17.12;62.34;96687.69;4226301;28;5759;-73
2023/05/14 07:24:55;;;;;;;;;;;;;;;17.17;62.34;96692.31;4223616;28;5821;-73
2023/05/14 07:26:59;;;;;;;;;;;;;;;17.22;62.14;96687.06;4210222;28;5624;-74
2023/05/14 07:29:11;;;;;;;;;;;;;;;17.25;62.08;96691.94;4221354;28;5653;-74
2023/05/14 07:31:14;;;;;;;;;;;;;;;17.22;61.95;96689.75;4233345;28;5597;-73
2023/05/14 07:33:18;;;;;;;;;;;;;;;17.22;62.03;96679.06;4218169;28;5708;-73
2023/05/14 07:35:21;;;;;;;;;;;;;;;17.28;61.73;96683.44;4220723;28;5907;-73
2023/05/14 07:37:25;;;;;;;;;;;;;;;17.29;61.71;96682.38;4222428;28;7719;-73
2023/05/14 07:39:29;;;;;;;;;;;;;;;17.31;61.69;96676.81;4218067;28;5881;-73
2023/05/14 07:41:32;;;;;;;;;;;;;;;17.37;61.56;96686.56;4223553;28;5658;-74
2023/05/14 07:43:37;;;;;;;;;;;;;;;17.38;61.55;96680.97;4233629;28;5697;-73
2023/05/14 07:45:43;;;;;;;;;;;;;;;17.42;61.51;96678.63;4234468;28;5701;-73
2023/05/14 07:47:45;;;;;;;;;;;;;;;17.51;61.40;96679.84;4230669;28;5705;-73
2023/05/14 07:49:49;;;;;;;;;;;;;;;17.56;61.28;96679.97;4214030;28;5741;-73
2023/05/14 07:51:52;;;;;;;;;;;;;;;17.51;61.10;96676.38;4224501;28;5684;-74
2023/05/14 07:53:55;;;;;;;;;;;;;;;17.50;61.27;96666.75;4223294;28;5617;-74
2023/05/14 07:55:59;;;;;;;;;;;;;;;17.48;61.06;96666.97;4227211;28;5622;-74
2023/05/14 07:58:02;;;;;;;;;;;;;;;17.56;60.98;96669.28;4220332;28;5613;-74
2023/05/14 08:00:09;;;;;;;;;;;;;;;17.66;60.88;96673.97;4217994;28;5778;-74
2023/05/14 08:02:14;;;;;;;;;;;;;;;17.71;60.84;96682.13;4227578;28;5693;-73
2023/05/14 08:04:19;;;;;;;;;;;;;;;17.74;60.83;96676.28;4231999;28;5606;-73
2023/05/14 08:06:22;;;;;;;;;;;;;;;17.77;60.65;96675.78;4225787;28;5194;-73
2023/05/14 08:08:26;;;;;;;;;;;;;;;17.71;60.67;96671.44;4225852;28;5127;-73
2023/05/14 08:10:29;;;;;;;;;;;;;;;17.75;60.36;96672.56;4228086;28;5771;-74
2023/05/14 08:12:33;;;;;;;;;;;;;;;17.84;60.32;96678.31;4230599;28;5757;-74
2023/05/14 08:14:36;;;;;;;;;;;;;;;17.81;60.19;96666.25;4229846;28;5709;-73
2023/05/14 08:16:39;;;;;;;;;;;;;;;17.92;60.27;96670.72;4225203;28;6649;-74
2023/05/14 08:18:46;;;;;;;;;;;;;;;17.96;60.05;96671.03;4231267;28;5693;-73
2023/05/14 08:20:50;;;;;;;;;;;;;;;17.91;60.27;96669.09;4231445;28;5689;-73
2023/05/14 08:22:58;;;;;;;;;;;;;;;17.86;59.86;96660.16;4230620;27;6672;-73
2023/05/14 08:25:02;;;;;;;;;;;;;;;17.94;59.71;96673.16;4235799;27;5716;-74
2023/05/14 08:27:09;;;;;;;;;;;;;;;17.91;59.76;96663.75;4230228;28;5239;-74
2023/05/14 08:29:14;;;;;;;;;;;;;;;17.86;59.72;96660.16;4233049;28;7709;-75
2023/05/14 08:31:21;;;;;;;;;;;;;;;17.84;59.70;96646.25;4228568;27;5705;-75
2023/05/14 08:33:24;;;;;;;;;;;;;;;17.89;59.56;96662.34;4215283;28;5712;-74
2023/05/14 08:35:29;;;;;;;;;;;;;;;17.94;59.49;96663.25;4224959;28;5776;-72
2023/05/14 08:37:31;;;;;;;;;;;;;;;17.94;59.38;96665.13;4229680;28;5606;-75
2023/05/14 08:39:34;;;;;;;;;;;;;;;17.97;59.33;96660.09;4219008;28;5712;-73
2023/05/14 08:41:37;;;;;;;;;;;;;;;18.00;59.20;96664.94;4229987;28;5635;-73
2023/05/14 08:43:45;;;;;;;;;;;;;;;18.06;59.18;96655.16;4229519;28;5689;-74
2023/05/14 08:45:53;;;;;;;;;;;;;;;18.08;59.14;96661.06;4231352;28;5682;-74
2023/05/14 08:47:58;;;;;;;;;;;;;;;18.10;58.87;96660.81;4220550;28;7106;-74
2023/05/14 08:50:04;;;;;;;;;;;;;;;18.12;58.88;96645.34;4219378;28;5590;-74
2023/05/14 08:52:09;;;;;;;;;;;;;;;18.16;58.67;96657.19;4234077;28;5760;-74
2023/05/14 08:54:14;;;;;;;;;;;;;;;18.20;58.60;96647.59;4229884;28;7164;-74
2023/05/14 08:56:18;;;;;;;;;;;;;;;18.24;58.50;96646.09;4233454;28;5614;-73
2023/05/14 08:58:20;;;;;;;;;;;;;;;18.26;58.24;96638.63;4227770;28;5617;-74
2023/05/14 09:00:25;;;;;;;;;;;;;;;18.27;58.19;96632.19;4224296;28;5590;-73
2023/05/14 09:02:29;;;;;;;;;;;;;;;18.30;58.33;96643.22;4224491;28;5670;-74
2023/05/14 09:04:34;;;;;;;;;;;;;;;18.33;58.17;96636.56;4226957;28;5953;-74
2023/05/14 09:06:37;;;;;;;;;;;;;;;18.36;57.94;96644.13;4224848;28;5674;-73
2023/05/14 09:08:42;;;;;;;;;;;;;;;18.39;57.92;96637.44;4218005;28;5763;-74
2023/05/14 09:10:45;;;;;;;;;;;;;;;18.42;57.73;96635.09;4220007;28;5666;-74
2023/05/14 09:12:47;;;;;;;;;;;;;;;18.47;57.78;96635.16;4229794;28;5629;-75
2023/05/14 09:14:51;;;;;;;;;;;;;;;18.53;57.78;96639.53;4229453;28;5693;-75
2023/05/14 09:16:55;;;;;;;;;;;;;;;18.54;57.39;96627.75;4233021;28;5626;-75
2023/05/14 09:18:59;;;;;;;;;;;;;;;18.55;57.52;96625.88;4220940;28;5699;-74
2023/05/14 09:21:02;;;;;;;;;;;;;;;18.58;57.58;96634.25;4230693;28;5680;-74
2023/05/14 09:23:05;;;;;;;;;;;;;;;18.63;57.47;96636.19;4230631;28;5594;-74
2023/05/14 09:25:12;;;;;;;;;;;;;;;18.67;57.35;96625.81;4226360;28;5308;-74
2023/05/14 09:27:20;;;;;;;;;;;;;;;18.70;57.35;96626.13;4226777;28;7683;-74
2023/05/14 09:29:24;;;;;;;;;;;;;;;18.72;57.23;96628.56;4226423;27;5614;-75
2023/05/14 09:31:27;;;;;;;;;;;;;;;18.71;56.90;96633.09;4220781;28;5680;-68
2023/05/14 09:33:30;;;;;;;;;;;;;;;18.69;56.73;96629.88;4216824;27;5700;-66
2023/05/14 09:35:33;;;;;;;;;;;;;;;18.67;56.90;96617.78;4223447;27;6423;-65
2023/05/14 09:37:36;;;;;;;;;;;;;;;18.66;56.68;96616.16;4222587;27;5742;-65
2023/05/14 09:39:40;;;;;;;;;;;;;;;18.66;56.61;96625.00;4223005;27;5944;-66
2023/05/14 09:41:45;;;;;;;;;;;;;;;18.67;56.79;96623.94;4224056;27;5782;-65
2023/05/14 09:43:48;;;;;;;;;;;;;;;18.68;56.41;96624.75;4227525;27;6028;-64
2023/05/14 09:45:51;;;;;;;;;;;;;;;18.69;56.67;96624.53;4224876;27;6486;-64
2023/05/14 09:47:53;;;;;;;;;;;;;;;18.69;56.63;96623.69;4224892;27;5117;-64
2023/05/14 09:49:56;;;;;;;;;;;;;;;18.68;56.47;96622.06;4224000;27;5866;-64
2023/05/14 09:52:02;;;;;;;;;;;;;;;18.65;56.61;96626.06;4230672;28;5607;-64
2023/05/14 09:54:05;;;;;;;;;;;;;;;18.65;56.63;96619.88;4217377;27;5805;-65
2023/05/14 09:56:08;;;;;;;;;;;;;;;18.65;56.50;96620.69;4230436;27;5717;-65
2023/05/14 09:58:14;;;;;;;;;;;;;;;18.63;56.69;96620.91;4218319;27;5609;-67
2023/05/14 10:00:18;;;;;;;;;;;;;;;18.56;56.61;96616.78;4222443;27;7442;-66
2023/05/14 10:02:25;;;;;;;;;;;;;;;18.51;56.64;96622.09;4223019;27;5700;-64
2023/05/14 10:04:28;;;;;;;;;;;;;;;18.48;56.76;96623.41;4216078;27;5688;-66
2023/05/14 10:06:34;;;;;;;;;;;;;;;18.44;56.57;96619.59;4219780;28;5878;-67
2023/05/14 10:08:41;;;;;;;;;;;;;;;18.42;56.67;96610.19;4221002;28;5111;-67
2023/05/14 10:10:44;;;;;;;;;;;;;;;18.41;56.81;96612.06;4222048;27;5635;-67
2023/05/14 10:12:53;;;;;;;;;;;;;;;18.39;56.66;96611.50;4225810;27;5161;-67
2023/05/14 10:15:00;;;;;;;;;;;;;;;18.38;56.61;96609.06;4223376;28;7679;-68
2023/05/14 10:17:05;;;;;;;;;;;;;;;18.33;56.66;96623.19;4221544;27;5084;-67
2023/05/14 10:19:10;;;;;;;;;;;;;;;18.33;56.57;96625.84;4225859;27;5680;-67
2023/05/14 10:21:15;;;;;;;;;;;;;;;18.34;56.70;96616.75;4218117;27;5736;-71
2023/05/14 10:23:18;;;;;;;;;;;;;;;18.33;56.50;96620.50;4217593;28;5754;-73
2023/05/14 10:25:22;;;;;;;;;;;;;;;18.34;56.56;96624.78;4226227;27;5902;-68
2023/05/14 10:27:25;;;;;;;;;;;;;;;18.35;56.50;96607.72;4225869;27;5637;-68
2023/05/14 10:29:33;;;;;;;;;;;;;;;18.32;56.57;96609.00;4226391;27;5707;-67
2023/05/14 10:31:48;;;;;;;;;;;;;;;18.29;56.83;96616.72;4229763;27;5681;-67
2023/05/14 10:33:51;;;;;;;;;;;;;;;18.26;56.90;96607.31;4233181;27;5673;-69
2023/05/14 10:36:01;;;;;;;;;;;;;;;18.26;56.75;96609.19;4232774;28;5787;-69
2023/05/14 10:38:08;;;;;;;;;;;;;;;18.27;56.75;96606.25;4219088;27;5636;-70
2023/05/14 10:40:12;;;;;;;;;;;;;;;18.27;56.63;96606.25;4227396;27;5621;-67
2023/05/14 10:42:18;;;;;;;;;;;;;;;18.26;56.65;96595.81;4224982;27;5711;-67
2023/05/14 10:44:21;;;;;;;;;;;;;;;18.33;56.68;96613.28;4229177;28;5668;-66
2023/05/14 10:46:24;;;;;;;;;;;;;;;18.41;56.36;96609.38;4231885;27;5645;-67
2023/05/14 10:48:29;;;;;;;;;;;;;;;18.45;56.52;96607.81;4230858;27;5736;-66
2023/05/14 10:50:32;;;;;;;;;;;;;;;18.48;56.45;96604.66;4232157;27;5681;-68
2023/05/14 10:52:35;;;;;;;;;;;;;;;18.50;56.48;96605.22;4231509;27;5617;-68
2023/05/14 10:54:38;;;;;;;;;;;;;;;18.56;56.37;96604.22;4229792;27;5754;-67
2023/05/14 10:56:43;;;;;;;;;;;;;;;18.60;56.37;96600.00;4231971;27;7209;-67
2023/05/14 10:58:46;;;;;;;;;;;;;;;18.65;56.46;96606.50;4231929;27;5774;-69
2023/05/14 11:00:55;;;;;;;;;;;;;;;18.68;56.18;96592.63;4227703;27;5662;-66
2023/05/14 11:02:59;;;;;;;;;;;;;;;18.72;56.16;96597.25;4227966;27;5362;-65
2023/05/14 11:05:06;;;;;;;;;;;;;;;18.76;55.91;96595.66;4216601;27;5696;-64
2023/05/14 11:07:10;;;;;;;;;;;;;;;18.77;55.84;96588.44;4229528;28;5605;-64
2023/05/14 11:09:16;;;;;;;;;;;;;;;18.79;56.01;96586.31;4230778;28;5779;-71
2023/05/14 11:11:20;;;;;;;;;;;;;;;18.77;55.78;96589.25;4229727;28;5919;-66
2023/05/14 11:13:23;;;;;;;;;;;;;;;18.76;55.84;96592.19;4223846;27;5790;-69
2023/05/14 11:15:27;;;;;;;;;;;;;;;18.75;55.71;96595.94;4231208;28;5605;-63
2023/05/14 11:17:31;;;;;;;;;;;;;;;18.75;55.95;96590.56;4226192;28;5688;-67
2023/05/14 11:19:34;;;;;;;;;;;;;;;18.77;55.40;96583.91;4230233;28;5734;-64
2023/05/14 11:21:39;;;;;;;;;;;;;;;18.80;55.55;96582.56;4228751;27;5696;-66
2023/05/14 11:23:41;;;;;;;;;;;;;;;18.82;55.24;96580.50;4231340;28;5696;-64
2023/05/14 11:25:44;;;;;;;;;;;;;;;18.84;55.43;96578.38;4229170;27;5738;-65
2023/05/14 11:27:47;;;;;;;;;;;;;;;18.84;55.37;96575.69;4226574;27;5731;-65
2023/05/14 11:29:50;;;;;;;;;;;;;;;18.81;55.29;96573.50;4230543;27;5706;-66
2023/05/14 11:31:54;;;;;;;;;;;;;;;18.81;55.06;96578.88;4226818;27;5672;-66
2023/05/14 11:33:57;;;;;;;;;;;;;;;18.80;54.82;96577.22;4229749;27;5665;-67
2023/05/14 11:36:00;;;;;;;;;;;;;;;18.81;55.06;96581.56;4223675;27;5649;-73
2023/05/14 11:38:04;;;;;;;;;;;;;;;18.82;55.01;96567.09;4231094;27;5687;-69
2023/05/14 11:40:15;;;;;;;;;;;;;;;18.84;54.77;96567.66;4229754;27;5635;-71
2023/05/14 11:42:19;;;;;;;;;;;;;;;18.85;54.50;96571.94;4226834;27;5743;-75
2023/05/14 11:44:22;;;;;;;;;;;;;;;18.86;54.46;96578.91;4231904;28;5693;-68
2023/05/14 11:46:26;;;;;;;;;;;;;;;18.87;54.64;96572.50;4227981;27;5594;-68
2023/05/14 11:48:29;;;;;;;;;;;;;;;18.85;54.37;96570.06;4232135;27;5709;-71
2023/05/14 11:50:36;;;;;;;;;;;;;;;18.85;54.27;96559.34;4206204;28;5640;-73
2023/05/14 11:52:40;;;;;;;;;;;;;;;18.85;54.10;96556.69;4231202;27;5800;-68
2023/05/14 11:54:44;;;;;;;;;;;;;;;18.80;53.98;96567.34;4228262;27;5606;-69
2023/05/14 11:56:50;;;;;;;;;;;;;;;18.76;54.10;96566.22;4222110;27;5612;-67
2023/05/14 11:58:57;;;;;;;;;;;;;;;18.78;53.95;96560.59;4227941;27;5088;-68
2023/05/14 12:01:00;;;;;;;;;;;;;;;18.79;53.93;96567.56;4231046;27;5669;-67
2023/05/14 12:03:05;;;;;;;;;;;;;;;18.82;53.90;96561.75;4218601;27;5680;-70
2023/05/14 12:05:10;;;;;;;;;;;;;;;18.84;53.72;96559.63;4228082;27;5606;-67
2023/05/14 12:07:15;;;;;;;;;;;;;;;18.87;53.78;96559.91;4224263;27;5677;-69
2023/05/14 12:09:18;;;;;;;;;;;;;;;18.90;53.79;96556.72;4230051;28;5700;-68
2023/05/14 12:11:23;;;;;;;;;;;;;;;18.94;53.94;96557.06;4224679;28;5731;-68
2023/05/14 12:13:26;;;;;;;;;;;;;;;18.96;53.95;96556.78;4225099;27;5711;-69
2023/05/14 12:15:31;;;;;;;;;;;;;;;18.97;53.72;96550.38;4218039;27;5606;-68
2023/05/14 12:17:34;;;;;;;;;;;;;;;18.99;53.88;96549.06;4230841;27;5685;-69
2023/05/14 12:19:40;;;;;;;;;;;;;;;19.04;53.46;96543.75;4218408;27;5842;-72
2023/05/14 12:21:44;;;;;;;;;;;;;;;19.04;53.56;96546.44;4228760;27;5509;-68
2023/05/14 12:23:47;;;;;;;;;;;;;;;19.04;53.05;96541.09;4226312;27;5803;-68
2023/05/14 12:25:50;;;;;;;;;;;;;;;19.04;53.04;96551.00;4222202;27;5701;-68
2023/05/14 12:27:55;;;;;;;;;;;;;;;19.04;53.24;96546.44;4227670;27;5565;-73
2023/05/14 12:30:02;;;;;;;;;;;;;;;19.05;53.00;96545.38;4224082;27;5724;-67
2023/05/14 12:32:22;;;;;;;;;;;;;;;19.06;52.87;96555.03;4210719;28;5715;-66
2023/05/14 12:34:25;;;;;;;;;;;;;;;19.04;52.66;96543.75;4224392;28;5769;-64
2023/05/14 12:36:28;;;;;;;;;;;;;;;19.03;52.65;96560.91;4223861;27;5077;-67
2023/05/14 12:38:31;;;;;;;;;;;;;;;19.06;52.48;96555.03;4221108;27;5678;-65
2023/05/14 12:40:35;;;;;;;;;;;;;;;19.10;51.98;96561.50;4224329;28;5106;-66
2023/05/14 12:42:38;;;;;;;;;;;;;;;19.07;51.94;96555.84;4223974;27;5790;-67
2023/05/14 12:44:42;;;;;;;;;;;;;;;19.12;52.22;96553.19;4228340;27;5680;-67
2023/05/14 12:46:45;;;;;;;;;;;;;;;19.16;52.21;96549.78;4225722;27;5813;-68
2023/05/14 12:48:48;;;;;;;;;;;;;;;19.23;52.05;96546.88;4220762;27;5609;-68
2023/05/14 12:50:54;;;;;;;;;;;;;;;19.24;51.93;96545.81;4221701;27;5776;-69
2023/05/14 12:52:57;;;;;;;;;;;;;;;19.26;51.82;96543.72;4227217;27;5672;-69
2023/05/14 12:55:00;;;;;;;;;;;;;;;19.29;52.19;96540.50;4208290;28;5780;-68
2023/05/14 12:57:04;;;;;;;;;;;;;;;19.32;52.28;96540.00;4223666;27;5096;-68
2023/05/14 12:59:08;;;;;;;;;;;;;;;19.36;52.10;96534.94;4222931;28;5624;-68
2023/05/14 13:01:12;;;;;;;;;;;;;;;19.39;52.00;96545.16;4219254;27;5780;-68
2023/05/14 13:03:15;;;;;;;;;;;;;;;19.43;51.79;96540.91;4219845;27;5721;-68
2023/05/14 13:05:18;;;;;;;;;;;;;;;19.46;51.70;96532.34;4221511;27;5613;-69
2023/05/14 13:07:21;;;;;;;;;;;;;;;19.46;51.81;96525.09;4222452;27;5795;-68
2023/05/14 13:09:24;;;;;;;;;;;;;;;19.48;51.41;96524.88;4221515;27;5751;-68
2023/05/14 13:11:29;;;;;;;;;;;;;;;19.50;51.41;96517.38;4215807;27;5614;-68
2023/05/14 13:13:32;;;;;;;;;;;;;;;19.52;50.71;96515.25;4223988;27;5673;-68
2023/05/14 13:15:35;;;;;;;;;;;;;;;19.52;50.80;96512.56;4223693;27;5816;-67
2023/05/14 13:17:40;;;;;;;;;;;;;;;19.55;50.95;96508.56;4226318;27;5685;-68
2023/05/14 13:19:42;;;;;;;;;;;;;;;19.55;50.64;96509.38;4232240;28;5597;-68
2023/05/14 13:21:45;;;;;;;;;;;;;;;19.57;50.43;96512.63;4231093;27;5615;-68
2023/05/14 13:23:48;;;;;;;;;;;;;;;19.63;50.80;96505.44;4228415;27;5746;-68
2023/05/14 13:25:51;;;;;;;;;;;;;;;19.69;50.14;96499.81;4231824;27;5717;-68
2023/05/14 13:27:54;;;;;;;;;;;;;;;19.74;50.38;96497.19;4223131;27;5792;-69
2023/05/14 13:29:57;;;;;;;;;;;;;;;19.74;50.41;96496.41;4220495;27;5759;-68
2023/05/14 13:31:59;;;;;;;;;;;;;;;19.74;50.55;96501.75;4228454;28;5847;-69
2023/05/14 13:34:03;;;;;;;;;;;;;;;19.71;50.27;96497.72;4227738;27;5727;-68
2023/05/14 13:36:08;;;;;;;;;;;;;;;19.67;50.49;96496.59;4215292;27;5735;-68
2023/05/14 13:38:11;;;;;;;;;;;;;;;19.68;50.27;96505.47;4223917;27;5740;-68
2023/05/14 13:40:13;;;;;;;;;;;;;;;19.66;50.55;96502.22;4226441;27;5644;-68
2023/05/14 13:42:16;;;;;;;;;;;;;;;19.58;50.15;96500.03;4221362;27;5685;-69
2023/05/14 13:44:19;;;;;;;;;;;;;;;19.54;50.22;96499.69;4226583;27;5642;-69
2023/05/14 13:46:22;;;;;;;;;;;;;;;19.53;50.29;96506.13;4228607;27;6458;-69
2023/05/14 13:48:25;;;;;;;;;;;;;;;19.53;50.52;96498.09;4223392;28;5820;-69
2023/05/14 13:50:30;;;;;;;;;;;;;;;19.53;50.60;96500.78;4224007;28;5927;-68
2023/05/14 13:52:32;;;;;;;;;;;;;;;19.54;50.52;96488.16;4223304;28;6378;-69
2023/05/14 13:54:35;;;;;;;;;;;;;;;19.53;50.65;96487.38;4219186;27;5598;-69
2023/05/14 13:56:38;;;;;;;;;;;;;;;19.54;50.08;96482.81;4222224;27;5719;-69
2023/05/14 13:58:41;;;;;;;;;;;;;;;19.55;50.49;96481.75;4220524;28;5744;-69
2023/05/14 14:00:44;;;;;;;;;;;;;;;19.54;50.17;96480.94;4224598;27;5648;-69
2023/05/14 14:02:46;;;;;;;;;;;;;;;19.54;49.99;96472.88;4227348;27;5131;-69
2023/05/14 14:04:49;;;;;;;;;;;;;;;19.54;50.06;96480.94;4219429;27;5756;-69
2023/05/14 14:06:54;;;;;;;;;;;;;;;19.56;49.99;96486.06;4226257;28;5653;-65
2023/05/14 14:08:56;;;;;;;;;;;;;;;19.58;49.95;96495.47;4232556;27;5587;-66
2023/05/14 14:10:59;;;;;;;;;;;;;;;19.58;49.72;96486.59;4221358;27;5710;-64
2023/05/14 14:13:02;;;;;;;;;;;;;;;19.56;49.75;96484.19;4233224;27;5829;-65
2023/05/14 14:15:06;;;;;;;;;;;;;;;19.53;49.80;96478.50;4220935;27;5613;-65
2023/05/14 14:17:09;;;;;;;;;;;;;;;19.52;49.67;96482.25;4223064;27;5719;-66
2023/05/14 14:19:12;;;;;;;;;;;;;;;19.51;49.60;96475.28;4224239;27;5735;-64
2023/05/14 14:21:19;;;;;;;;;;;;;;;19.53;49.44;96473.97;4224201;27;5708;-66
2023/05/14 14:23:23;;;;;;;;;;;;;;;19.57;49.44;96475.06;4227107;28;6000;-65
2023/05/14 14:25:26;;;;;;;;;;;;;;;19.59;49.26;96480.97;4230764;28;5692;-71
2023/05/14 14:27:31;;;;;;;;;;;;;;;19.61;49.55;96473.53;4234994;27;5685;-71
2023/05/14 14:29:35;;;;;;;;;;;;;;;19.61;49.17;96470.84;4223098;27;5709;-67
2023/05/14 14:31:38;;;;;;;;;;;;;;;19.64;49.38;96470.31;4219290;27;5725;-66
2023/05/14 14:33:41;;;;;;;;;;;;;;;19.65;49.12;96466.56;4225477;27;5653;-69
2023/05/14 14:35:44;;;;;;;;;;;;;;;19.64;49.25;96464.94;4223884;27;5664;-68
2023/05/14 14:37:49;;;;;;;;;;;;;;;19.62;49.29;96459.03;4225284;27;5618;-67
2023/05/14 14:39:53;;;;;;;;;;;;;;;19.64;49.37;96464.16;4231958;28;5767;-68
2023/05/14 14:41:56;;;;;;;;;;;;;;;19.62;49.44;96464.41;4223818;27;5722;-67
2023/05/14 14:44:01;;;;;;;;;;;;;;;19.63;49.15;96463.34;4225755;27;5772;-67
2023/05/14 14:46:04;;;;;;;;;;;;;;;19.65;49.29;96466.56;4220984;27;7805;-67
2023/05/14 14:48:25;;;;;;;;;;;;;;;19.67;49.34;96461.75;4228240;27;5614;-67
2023/05/14 14:50:28;;;;;;;;;;;;;;;19.69;49.14;96464.97;4227187;28;5609;-66
2023/05/14 14:52:31;;;;;;;;;;;;;;;19.71;48.97;96464.75;4213834;28;5708;-67
2023/05/14 14:54:33;;;;;;;;;;;;;;;19.69;49.00;96462.28;4231449;27;5594;-67
2023/05/14 14:56:38;;;;;;;;;;;;;;;19.65;49.11;96457.72;4225725;27;5598;-67
2023/05/14 14:58:41;;;;;;;;;;;;;;;19.64;49.03;96459.59;4233896;27;5591;-67
2023/05/14 15:00:44;;;;;;;;;;;;;;;19.63;49.30;96460.66;4232737;27;5586;-66
2023/05/14 15:02:47;;;;;;;;;;;;;;;19.65;49.28;96455.03;4224544;27;5842;-68
2023/05/14 15:04:50;;;;;;;;;;;;;;;19.66;49.04;96457.44;4209189;28;7672;-66
2023/05/14 15:06:53;;;;;;;;;;;;;;;19.69;48.94;96464.16;4228249;27;5582;-66
2023/05/14 15:08:57;;;;;;;;;;;;;;;19.69;49.16;96462.28;4229623;27;5601;-70
2023/05/14 15:11:00;;;;;;;;;;;;;;;19.70;49.24;96463.91;4227992;27;5704;-68
2023/05/14 15:13:06;;;;;;;;;;;;;;;19.70;48.91;96463.91;4228416;28;5689;-71
2023/05/14 15:15:10;;;;;;;;;;;;;;;19.70;48.88;96469.25;4232046;27;5080;-71
2023/05/14 15:17:13;;;;;;;;;;;;;;;19.72;49.08;96477.06;4232573;27;6421;-68
2023/05/14 15:19:16;;;;;;;;;;;;;;;19.73;48.67;96458.03;4226476;27;5851;-67
2023/05/14 15:21:19;;;;;;;;;;;;;;;19.73;48.76;96458.03;4230551;27;7406;-67
2023/05/14 15:23:22;;;;;;;;;;;;;;;19.75;48.81;96463.94;4227033;27;5864;-67
2023/05/14 15:25:27;;;;;;;;;;;;;;;19.75;48.67;96457.78;4221290;27;5668;-68
2023/05/14 15:27:30;;;;;;;;;;;;;;;19.75;48.50;96472.00;4225723;28;5708;-67
2023/05/14 15:29:35;;;;;;;;;;;;;;;19.73;48.76;96467.97;4229790;27;5785;-68
2023/05/14 15:31:40;;;;;;;;;;;;;;;19.75;48.47;96463.94;4206610;28;5628;-67
2023/05/14 15:33:43;;;;;;;;;;;;;;;19.73;48.57;96462.59;4226774;28;5692;-67
2023/05/14 15:35:46;;;;;;;;;;;;;;;19.72;48.52;96467.16;4225876;27;5646;-66
2023/05/14 15:37:50;;;;;;;;;;;;;;;19.77;48.36;96477.09;4228424;27;5696;-67
2023/05/14 15:39:53;;;;;;;;;;;;;;;19.75;48.20;96472.00;4228976;28;5756;-65
2023/05/14 15:41:56;;;;;;;;;;;;;;;19.74;48.04;96481.09;4224143;28;5586;-66
2023/05/14 15:44:00;;;;;;;;;;;;;;;19.72;48.09;96474.41;4231016;27;5697;-66
2023/05/14 15:46:04;;;;;;;;;;;;;;;19.70;47.94;96469.25;4227513;27;5869;-71
2023/05/14 15:48:11;;;;;;;;;;;;;;;19.71;47.78;96473.59;4226244;27;5606;-69
2023/05/14 15:50:14;;;;;;;;;;;;;;;19.69;47.88;96478.38;4230386;27;5845;-67
2023/05/14 15:52:18;;;;;;;;;;;;;;;19.68;47.99;96481.31;4228640;27;5590;-67
2023/05/14 15:54:25;;;;;;;;;;;;;;;19.67;47.83;96479.72;4227066;27;5625;-64
2023/05/14 15:56:31;;;;;;;;;;;;;;;19.64;47.84;96470.31;4229899;27;5753;-65
2023/05/14 15:58:34;;;;;;;;;;;;;;;19.62;47.89;96487.72;4229754;27;5693;-67
2023/05/14 16:00:37;;;;;;;;;;;;;;;19.61;47.98;96486.13;4229869;27;5709;-67
2023/05/14 16:02:41;;;;;;;;;;;;;;;19.58;48.02;96486.59;4226711;27;5618;-65
2023/05/14 16:04:45;;;;;;;;;;;;;;;19.58;48.34;96489.28;4230023;27;5800;-72
2023/05/14 16:06:48;;;;;;;;;;;;;;;19.49;48.42;96495.13;4235074;27;7312;-68
2023/05/14 16:08:51;;;;;;;;;;;;;;;19.42;48.52;96499.06;4229411;27;5606;-68
2023/05/14 16:10:53;;;;;;;;;;;;;;;19.27;48.51;96502.44;4220853;28;5696;-69
2023/05/14 16:12:57;;;;;;;;;;;;;;;19.15;48.86;96497.25;4233076;27;5685;-68
2023/05/14 16:15:00;;;;;;;;;;;;;;;19.15;48.83;96488.41;4231476;27;6680;-66
2023/05/14 16:17:03;;;;;;;;;;;;;;;19.16;48.68;96484.66;4229688;27;7395;-67
2023/05/14 16:19:07;;;;;;;;;;;;;;;19.18;48.75;96486.00;4239551;27;5674;-68
2023/05/14 16:21:11;;;;;;;;;;;;;;;19.20;48.84;96480.41;4227743;27;5717;-70
2023/05/14 16:23:14;;;;;;;;;;;;;;;19.22;49.13;96478.28;4232129;28;5736;-67
2023/05/14 16:25:18;;;;;;;;;;;;;;;19.21;49.21;96482.00;4232927;28;6267;-69
2023/05/14 16:27:21;;;;;;;;;;;;;;;19.22;49.07;96480.13;4225183;28;5764;-66
2023/05/14 16:29:23;;;;;;;;;;;;;;;19.25;49.27;96482.31;4232859;28;5744;-66
2023/05/14 16:31:26;;;;;;;;;;;;;;;19.28;49.38;96487.16;4228970;27;5598;-66
2023/05/14 16:33:29;;;;;;;;;;;;;;;19.30;49.22;96480.50;4224202;27;5770;-66
2023/05/14 16:35:33;;;;;;;;;;;;;;;19.32;49.38;96477.53;4225871;27;5780;-66
2023/05/14 16:37:36;;;;;;;;;;;;;;;19.31;49.54;96470.56;4229138;28;5602;-65
2023/05/14 16:39:39;;;;;;;;;;;;;;;19.31;49.37;96486.66;4232082;27;6293;-68
2023/05/14 16:41:42;;;;;;;;;;;;;;;19.31;49.41;96497.38;4233151;28;5594;-67
2023/05/14 16:43:45;;;;;;;;;;;;;;;19.33;49.87;96516.69;4231491;27;5590;-67